Flight Track Log - Related Links

Times and Time Zones

All times are in EST time to prevent confusion due to time zone crossing. See the BOE440 flight status page for this flight to view local times or setup timezone preferences in your user account.

Time Position Orientation Groundspeed Altitude Reporting Facility
EST Latitude Longitude Course Direction KTS MPH feet Rate Location/Type
Mon 12:30:49 PM 47.8892 -122.2861 175° South 155 178 2,000  Level Seattle Center
Mon 12:31:50 PM 47.8364 -122.2792 240° Southwest 215 247 3,000 1,488 Climbing Seattle Center
Mon 12:32:50 PM 47.8053 -122.3589 251° West 230 265 5,000 992 Climbing Seattle Center
Mon 12:33:51 PM 47.7850 -122.4461 252° West 234 269 5,000  Level Seattle Center
Mon 12:34:24 PM 47.7750 -122.4919 251° West 231 266 5,000 1,532 Level Seattle Center
Mon 12:35:25 PM 47.7528 -122.5897 238° Southwest 233 268 7,400 2,951 Climbing Seattle Center
Mon 12:36:26 PM 47.7181 -122.6733 234° Southwest 243 280 11,000 2,852 Climbing Seattle Center
Mon 12:37:27 PM 47.6700 -122.7697 233° Southwest 303 349 13,200 1,967 Climbing Seattle Center
Mon 12:38:28 PM 47.6150 -122.8764 232° Southwest 330 380 15,000 885 Climbing Seattle Center
Mon 12:39:29 PM 47.5575 -122.9872 233° Southwest 341 392 15,000 1,131 Level Seattle Center
Mon 12:40:30 PM 47.5008 -123.0986 232° Southwest 343 395 17,300 2,902 Climbing Seattle Center
Mon 12:41:31 PM 47.4411 -123.2125 233° Southwest 351 404 20,900 3,197 Climbing Seattle Center
Mon 12:42:32 PM 47.3786 -123.3344 233° Southwest 367 422 23,800 2,852 Climbing Seattle Center
Mon 12:43:33 PM 47.3017 -123.4836 232° Southwest 382 440 26,700 2,557 Climbing Seattle Center
Mon 12:44:34 PM 47.2347 -123.6081 232° Southwest 390 449 29,000 1,951 Climbing Seattle Center
Mon 12:45:36 PM 47.1669 -123.7372 233° Southwest 400 460 30,700 1,951 Climbing Seattle Center
Mon 12:46:37 PM 47.0969 -123.8714 232° Southwest 409 471 33,000 1,967 Climbing Seattle Center
Mon 12:47:38 PM 47.0250 -124.0042 227° Southwest 413 475 34,700 1,623 Climbing Seattle Center
Mon 12:48:39 PM 46.9481 -124.1261 189° South 414 476 36,300 1,426 Climbing Seattle Center
Mon 12:49:40 PM 46.8236 -124.1536 180° South 464 534 37,600 984 Climbing Seattle Center
Mon 12:50:41 PM 46.6931 -124.1550 181° South 470 541 38,300 683 Climbing Seattle Center
Mon 12:51:43 PM 46.5600 -124.1572 181° South 476 548 39,000 293 Climbing Seattle Center
Mon 12:52:44 PM 46.4000 -124.1611 181° South 480 552 38,900  Descending Seattle Center
Mon 12:53:45 PM 46.2644 -124.1644 180° South 479 551 39,000 49 Climbing Seattle Center
Mon 12:54:46 PM 46.1322 -124.1658 181° South 478 550 39,000  Level Seattle Center
Mon 12:55:47 PM 46.0000 -124.1694 180° South 476 548 39,000  Level Seattle Center
Mon 12:56:49 PM 45.8669 -124.1708 180° South 479 551 39,000  Level Seattle Center
Mon 12:57:50 PM 45.7339 -124.1722 181° South 480 552 39,000  Level Seattle Center
Mon 12:58:51 PM 45.6000 -124.1764 181° South 482 555 39,000  Level Seattle Center
Mon 12:59:52 PM 45.4678 -124.1800 180° South 480 552 39,000  Level Seattle Center
Mon 01:00:53 PM 45.3361 -124.1808 180° South 477 549 39,000  Level Seattle Center
Mon 01:01:54 PM 45.2067 -124.1811 181° South 471 542 39,000 -195 Level Seattle Center
Mon 01:02:56 PM 45.0506 -124.1861 180° South 471 542 38,600 -341 Descending Seattle Center
Mon 01:03:57 PM 44.9267 -124.1869 181° South 458 527 38,300 -344 Descending Seattle Center
Mon 01:04:58 PM 44.8042 -124.1892 181° South 449 517 37,900 -393 Descending Seattle Center
Mon 01:05:59 PM 44.6828 -124.1917 181° South 444 511 37,500 -492 Descending Seattle Center
Mon 01:07:00 PM 44.5625 -124.1939 181° South 437 503 36,900 -590 Descending Seattle Center
Mon 01:08:01 PM 44.4428 -124.1958 181° South 434 499 36,300 -689 Descending Seattle Center
Mon 01:09:02 PM 44.3214 -124.1978 181° South 436 502 35,500 -537 Descending Seattle Center
Mon 01:10:04 PM 44.1989 -124.2000 181° South 441 507 35,200 -341 Descending Seattle Center
Mon 01:11:05 PM 44.0547 -124.2031 180° South 434 499 34,800 -393 Descending Seattle Center
Mon 01:12:06 PM 43.9358 -124.2044 180° South 430 495 34,400 -344 Descending Seattle Center
Mon 01:13:07 PM 43.8183 -124.2058 181° South 425 489 34,100 -295 Descending Seattle Center
Mon 01:14:08 PM 43.7008 -124.2078 181° South 424 488 33,800 -244 Descending Seattle Center
Mon 01:15:10 PM 43.5842 -124.2103 180° South 421 484 33,600 -195 Descending Seattle Center
Mon 01:16:11 PM 43.4678 -124.2111 181° South 420 483 33,400 -246 Descending Seattle Center
Mon 01:17:12 PM 43.3514 -124.2133 181° South 419 482 33,100 -295 Descending Seattle Center
Mon 01:18:13 PM 43.2350 -124.2150 181° South 419 482 32,800 -246 Descending Seattle Center
Mon 01:19:14 PM 43.1211 -124.2183 181° South 414 476 32,600 -195 Descending Seattle Center
Mon 01:20:16 PM 43.0061 -124.2217 180° South 413 475 32,400 -244 Descending Seattle Center
Mon 01:21:17 PM 42.8686 -124.2206 181° South 413 475 32,100 -246 Descending Seattle Center
Mon 01:22:18 PM 42.7531 -124.2231 181° South 413 475 31,900 -197 Descending Seattle Center
Mon 01:23:19 PM 42.6372 -124.2253 181° South 415 478 31,700 -148 Descending Seattle Center
Mon 01:24:20 PM 42.5211 -124.2269 181° South 417 480 31,600 -98 Descending Seattle Center
Mon 01:25:22 PM 42.4058 -124.2283 181° South 416 479 31,500 -146 Descending Seattle Center
Mon 01:26:23 PM 42.2914 -124.2317 181° South 414 476 31,300 -148 Descending Seattle Center
Mon 01:27:24 PM 42.1747 -124.2342 180° South 416 479 31,200 -98 Descending Seattle Center
Mon 01:28:25 PM 42.0597 -124.2347 181° South 415 478 31,100 -98 Descending Seattle Center
Mon 01:29:27 PM 41.9453 -124.2375 181° South 413 475 31,000 -98 Descending Seattle Center
Mon 01:30:28 PM 41.8075 -124.2397 167° South 413 475 30,900 -98 Descending Seattle Center
Mon 01:31:29 PM 41.6914 -124.2047 164° South 426 490 30,800 -49 Descending Seattle Center
Mon 01:32:30 PM 41.5772 -124.1603 164° South 427 491 30,800  Level Seattle Center
Mon 01:33:32 PM 41.4631 -124.1161 164° South 428 493 30,800  Level Seattle Center
Mon 01:34:33 PM 41.3492 -124.0733 164° South 426 490 30,800  Level Seattle Center
Mon 01:35:34 PM 41.2358 -124.0294 164° South 424 488 30,800 -49 Level Seattle Center
Mon 01:36:35 PM 41.1217 -123.9856 164° South 425 489 30,700 -49 Descending Seattle Center
Mon 01:37:37 PM 41.0078 -123.9425 164° South 425 489 30,700 -49 Level Seattle Center
Mon 01:38:38 PM 40.8950 -123.8986 164° South 423 487 30,600 -148 Descending Seattle Center
Mon 01:39:39 PM 40.7806 -123.8561 164° South 424 488 30,400 -148 Descending Seattle Center
Mon 01:40:40 PM 40.6658 -123.8128 163° South 426 490 30,300 -98 Descending Seattle Center
Mon 01:41:41 PM 40.5267 -123.7581 164° South 429 494 30,200 -49 Descending Seattle Center
Mon 01:42:43 PM 40.4108 -123.7144 164° South 430 495 30,200  Level Seattle Center
Mon 01:43:44 PM 40.2947 -123.6719 164° South 429 494 30,200 -49 Level Seattle Center
Mon 01:44:45 PM 40.1792 -123.6281 164° South 430 495 30,100 -49 Descending Seattle Center
Mon 01:45:46 PM 40.0631 -123.5850 164° South 431 496 30,100 -98 Level Seattle Center
Mon 01:46:47 PM 39.9469 -123.5428 164° South 432 497 29,900 -49 Descending Seattle Center
Mon 01:47:48 PM 39.8300 -123.4997 164° South 434 499 30,000 78 Climbing Seattle Center
Mon 01:48:04 PM 39.8028 -123.4894 168° South 429 494 30,000 -79 Level Oakland Center
Mon 01:49:04 PM 39.6847 -123.4556 166° South 429 494 29,900  Descending Oakland Center
Mon 01:50:05 PM 39.5686 -123.4192 166° South 429 494 30,000 50 Climbing Oakland Center
Mon 01:51:04 PM 39.4422 -123.3797 167° South 429 494 30,000  Level Oakland Center
Mon 01:52:04 PM 39.3242 -123.3436 175° South 429 494 30,000  Level Oakland Center
Mon 01:53:05 PM 39.2075 -123.3317 181° South 429 494 30,000  Level Oakland Center
Mon 01:54:04 PM 39.0950 -123.3333 179° South 423 487 30,000  Level Oakland Center
Mon 01:55:04 PM 38.9783 -123.3294 161° South 417 480 30,000  Level Oakland Center
Mon 01:56:04 PM 38.8603 -123.2778 158° South 428 493 30,000  Level Oakland Center
Mon 01:57:04 PM 38.7447 -123.2181 157° South 433 498 30,000  Level Oakland Center
Mon 01:58:05 PM 38.6311 -123.1561 158° South 438 504 30,000  Level Oakland Center
Mon 01:59:04 PM 38.5156 -123.0969 157° South 449 517 30,000  Level Oakland Center
Mon 02:00:04 PM 38.3997 -123.0353 158° South 449 517 30,000  Level Oakland Center
Mon 02:01:04 PM 38.2839 -122.9764 158° South 449 517 30,000  Level Oakland Center
Mon 02:02:04 PM 38.1681 -122.9178 156° South 449 517 30,000  Level Oakland Center
Mon 02:03:04 PM 38.0544 -122.8542 154° Southeast 449 517 30,000  Level Oakland Center
Mon 02:04:04 PM 37.9469 -122.7881 153° Southeast 457 526 30,000  Level Oakland Center
Mon 02:05:04 PM 37.8333 -122.7142 151° Southeast 463 533 30,000  Level Oakland Center
Mon 02:06:04 PM 37.7200 -122.6356 152° Southeast 463 533 30,000  Level Oakland Center
Mon 02:07:05 PM 37.6061 -122.5594 153° Southeast 463 533 30,000  Level Oakland Center
Mon 02:08:04 PM 37.4944 -122.4864 152° Southeast 463 533 30,000  Level Oakland Center
Mon 02:09:04 PM 37.3808 -122.4111 153° Southeast 463 533 30,000  Level Oakland Center
Mon 02:10:04 PM 37.2669 -122.3383 153° Southeast 463 533 30,000 -500 Level Oakland Center
Mon 02:11:04 PM 37.1531 -122.2658 153° Southeast 463 533 29,000  Descending Oakland Center
Mon 02:12:04 PM 37.0411 -122.1939 152° Southeast 463 533 30,000 496 Climbing Oakland Center
Mon 02:13:05 PM 36.9269 -122.1192 153° Southeast 463 533 30,000  Level Oakland Center
Mon 02:14:04 PM 36.8131 -122.0475 153° Southeast 463 533 30,000  Level Oakland Center
Mon 02:15:04 PM 36.6969 -121.9733 152° Southeast 463 533 30,000  Level Oakland Center
Mon 02:16:05 PM 36.5847 -121.8994 153° Southeast 463 533 30,000  Level Oakland Center
Mon 02:17:05 PM 36.4706 -121.8283 153° Southeast 463 533 30,000  Level Oakland Center
Mon 02:18:05 PM 36.3481 -121.7522 153° Southeast 455 524 30,000  Level Oakland Center
Mon 02:19:04 PM 36.2339 -121.6789 144° Southeast 455 524 30,000  Level Oakland Center
Mon 02:20:04 PM 36.1281 -121.5828 137° Southeast 455 524 30,000  Level Oakland Center
Mon 02:21:04 PM 36.0306 -121.4717 137° Southeast 468 539 30,000  Level Oakland Center
Mon 02:23:13 PM 35.8331 -121.2422 138° Southeast 470 541 30,000  Level Los Angeles Center
Mon 02:24:13 PM 35.7353 -121.1336 137° Southeast 470 541 30,000  Level Los Angeles Center
Mon 02:25:13 PM 35.6397 -121.0231 139° Southeast 470 541 30,000 -50 Level Los Angeles Center
Mon 02:26:13 PM 35.5297 -120.9067 137° Southeast 470 541 29,900 -50 Descending Los Angeles Center
Mon 02:27:13 PM 35.4317 -120.7964 136° Southeast 470 541 29,900 50 Level Los Angeles Center
Mon 02:28:14 PM 35.3378 -120.6867 138° Southeast 476 548 30,000 50 Climbing Los Angeles Center
Mon 02:29:13 PM 35.2375 -120.5767 137° Southeast 476 548 30,000 -50 Level Los Angeles Center
Mon 02:30:13 PM 35.1392 -120.4647 137° Southeast 482 555 29,900 -50 Descending Los Angeles Center
Mon 02:31:13 PM 35.0431 -120.3556 137° Southeast 482 555 29,900  Level Los Angeles Center
Mon 02:32:13 PM 34.9444 -120.2442 138° Southeast 482 555 29,900  Level Los Angeles Center
Mon 02:33:13 PM 34.8458 -120.1356 139° Southeast 482 555 29,900 50 Level Los Angeles Center
Mon 02:34:13 PM 34.7431 -120.0269 138° Southeast 482 555 30,000 50 Climbing Los Angeles Center
Mon 02:35:13 PM 34.6442 -119.9186 141° Southeast 482 555 30,000  Level Los Angeles Center
Mon 02:36:13 PM 34.5511 -119.8261 136° Southeast 481 554 30,000  Level Los Angeles Center
Mon 02:37:13 PM 34.4564 -119.7136 134° Southeast 481 554 30,000  Level Los Angeles Center
Mon 02:38:13 PM 34.3617 -119.5964 136° Southeast 481 554 30,000  Level Los Angeles Center
Mon 02:39:13 PM 34.2647 -119.4817 135° Southeast 487 560 30,000  Level Los Angeles Center
Mon 02:40:13 PM 34.1697 -119.3650 135° Southeast 487 560 30,000  Level Los Angeles Center
Mon 02:41:13 PM 34.0747 -119.2511 135° Southeast 487 560 30,000  Level Los Angeles Center
Mon 02:42:14 PM 33.9775 -119.1347 136° Southeast 487 560 30,000  Level Los Angeles Center
Mon 02:43:13 PM 33.8800 -119.0211 135° Southeast 487 560 30,000  Level Los Angeles Center
Mon 02:44:13 PM 33.7844 -118.9078 136° Southeast 492 566 30,000  Level Los Angeles Center
Mon 02:45:13 PM 33.6767 -118.7819 135° Southeast 492 566 30,000  Level Los Angeles Center
Mon 02:46:13 PM 33.5769 -118.6617 120° Southeast 492 566 30,000  Level Los Angeles Center
Mon 02:47:13 PM 33.5089 -118.5203 97° East 486 559 30,000  Level Los Angeles Center
Mon 02:48:13 PM 33.4931 -118.3628 71° East 475 547 30,000  Level Los Angeles Center
Mon 02:49:13 PM 33.5331 -118.2269 27° Northeast 449 517 30,000  Level Los Angeles Center
Mon 02:51:13 PM 33.7228 -118.1117 335° Northwest 357 411 30,000  Level Los Angeles Center
Mon 02:52:13 PM 33.8222 -118.1667 304° West 330 380 30,000  Level Los Angeles Center
Mon 02:53:13 PM 33.8789 -118.2681 295° West 336 387 30,000  Level Los Angeles Center
Mon 02:54:13 PM 33.9208 -118.3742 297° West 336 387 30,000  Level Los Angeles Center
Mon 02:55:13 PM 33.9647 -118.4781 297° West 347 399 30,000  Level Los Angeles Center
Mon 02:56:13 PM 34.0106 -118.5844 299° West 354 407 30,000  Level Los Angeles Center
Mon 02:57:13 PM 34.0525 -118.6761 295° West 348 400 30,000  Level Los Angeles Center
Mon 02:58:13 PM 34.0981 -118.7928 297° West 348 400 30,000  Level Los Angeles Center
Mon 02:59:13 PM 34.1436 -118.8997 297° West 348 400 30,000  Level Los Angeles Center
Mon 03:00:13 PM 34.1872 -119.0042 297° West 348 400 30,000  Level Los Angeles Center
Mon 03:01:13 PM 34.2286 -119.1008 297° West 348 400 30,000  Level Los Angeles Center
Mon 03:02:13 PM 34.2739 -119.2081 296° West 348 400 30,000  Level Los Angeles Center
Mon 03:03:13 PM 34.3172 -119.3153 296° West 348 400 30,000  Level Los Angeles Center
Mon 03:04:13 PM 34.3603 -119.4228 299° West 348 400 30,000  Level Los Angeles Center
Mon 03:05:13 PM 34.4075 -119.5278 300° West 348 400 30,000  Level Los Angeles Center
Mon 03:06:13 PM 34.4567 -119.6331 293° West 348 400 30,000  Level Los Angeles Center
Mon 03:07:13 PM 34.4950 -119.7431 308° West 353 406 30,000 -500 Level Los Angeles Center
Mon 03:08:13 PM 34.5569 -119.8392 323° Northwest 353 406 29,000  Descending Los Angeles Center
Mon 03:09:13 PM 34.6442 -119.9186 317° Northwest 353 406 30,000 500 Climbing Los Angeles Center
Mon 03:10:13 PM 34.7167 -120.0003 318° Northwest 353 406 30,000  Level Los Angeles Center
Mon 03:11:13 PM 34.7914 -120.0822 320° Northwest 358 412 30,000  Level Los Angeles Center
Mon 03:12:13 PM 34.8719 -120.1644 317° Northwest 368 423 30,000  Level Los Angeles Center
Mon 03:13:13 PM 34.9444 -120.2467 317° Northwest 368 423 30,000  Level Los Angeles Center
Mon 03:14:13 PM 35.0186 -120.3317 318° Northwest 368 423 30,000  Level Los Angeles Center
Mon 03:15:13 PM 35.0950 -120.4167 318° Northwest 368 423 30,000  Level Los Angeles Center
Mon 03:16:13 PM 35.1694 -120.4994 317° Northwest 363 418 30,000  Level Los Angeles Center
Mon 03:18:40 PM 35.3533 -120.7064 317° Northwest 352 405 30,000  Level Oakland Center
Mon 03:19:40 PM 35.4286 -120.7928 319° Northwest 363 418 30,000  Level Oakland Center
Mon 03:20:40 PM 35.5058 -120.8767 318° Northwest 363 418 30,000  Level Oakland Center
Mon 03:21:40 PM 35.5831 -120.9608 318° Northwest 369 425 30,000  Level Oakland Center
Mon 03:22:41 PM 35.6603 -121.0478 317° Northwest 369 425 30,000  Level Oakland Center
Mon 03:23:40 PM 35.7353 -121.1347 317° Northwest 369 425 30,000  Level Oakland Center
Mon 03:24:40 PM 35.8122 -121.2219 317° Northwest 369 425 30,000  Level Oakland Center
Mon 03:25:40 PM 35.8872 -121.3092 317° Northwest 369 425 30,000  Level Oakland Center
Mon 03:26:40 PM 35.9639 -121.3969 317° Northwest 369 425 30,000  Level Oakland Center
Mon 03:27:40 PM 36.0408 -121.4847 317° Northwest 369 425 30,000  Level Oakland Center
Mon 03:28:40 PM 36.1175 -121.5725 320° Northwest 369 425 30,000  Level Oakland Center
Mon 03:29:40 PM 36.1986 -121.6556 332° Northwest 369 425 30,000  Level Oakland Center
Mon 03:30:40 PM 36.2942 -121.7181 334° Northwest 374 430 30,000  Level Oakland Center
Mon 03:31:40 PM 36.3917 -121.7783 333° Northwest 379 436 30,000  Level Oakland Center
Mon 03:32:40 PM 36.4728 -121.8308 333° Northwest 379 436 30,000  Level Oakland Center
Mon 03:33:40 PM 36.5703 -121.8914 332° Northwest 379 436 30,000  Level Oakland Center
Mon 03:34:40 PM 36.6678 -121.9547 333° Northwest 384 442 30,000  Level Oakland Center
Mon 03:35:40 PM 36.7633 -122.0156 334° Northwest 389 448 30,000  Level Oakland Center
Mon 03:36:40 PM 36.8628 -122.0767 332° Northwest 389 448 30,000  Level Oakland Center
Mon 03:37:40 PM 36.9581 -122.1406 333° Northwest 389 448 30,000  Level Oakland Center
Mon 03:38:40 PM 37.0536 -122.2019 333° Northwest 389 448 30,000  Level Oakland Center
Mon 03:39:40 PM 37.1508 -122.2633 333° Northwest 389 448 30,000  Level Oakland Center
Mon 03:40:41 PM 37.2483 -122.3250 332° Northwest 389 448 30,000  Level Oakland Center
Mon 03:41:40 PM 37.3433 -122.3894 334° Northwest 389 448 30,000  Level Oakland Center
Mon 03:42:40 PM 37.4428 -122.4514 332° Northwest 389 448 30,000  Level Oakland Center
Mon 03:43:40 PM 37.5400 -122.5164 333° Northwest 389 448 30,000  Level Oakland Center
Mon 03:44:40 PM 37.6372 -122.5786 331° Northwest 389 448 30,000  Level Oakland Center
Mon 03:45:40 PM 37.7303 -122.6436 333° Northwest 389 448 30,000  Level Oakland Center
Mon 03:46:40 PM 37.8294 -122.7089 333° Northwest 389 448 30,000  Level Oakland Center
Mon 03:47:40 PM 37.9264 -122.7717 333° Northwest 389 448 30,000  Level Oakland Center
Mon 03:48:40 PM 38.0381 -122.8431 339° North 391 450 30,000  Level Oakland Center
Mon 03:49:40 PM 38.1436 -122.8958 346° North 396 456 30,000  Level Oakland Center
Mon 03:50:40 PM 38.2514 -122.9306 345° North 401 461 30,000  Level Oakland Center
Mon 03:51:40 PM 38.3592 -122.9678 344° North 396 456 30,000  Level Oakland Center
Mon 03:53:40 PM 38.5747 -123.0456 346° North 396 456 30,000  Level Oakland Center
Mon 03:54:40 PM 38.6828 -123.0806 344° North 396 456 30,000  Level Oakland Center
Mon 03:55:40 PM 38.7903 -123.1208 345° North 396 456 30,000  Level Oakland Center
Mon 03:56:40 PM 38.9003 -123.1589 345° North 396 456 30,000  Level Oakland Center
Mon 03:57:40 PM 39.0100 -123.1969 345° North 396 456 30,000  Level Oakland Center
Mon 03:58:41 PM 39.1178 -123.2350 344° North 396 456 30,000  Level Oakland Center
Mon 03:59:40 PM 39.2253 -123.2761 345° North 396 456 30,000  Level Oakland Center
Mon 04:00:40 PM 39.3331 -123.3144 345° North 396 456 30,000  Level Oakland Center
Mon 04:01:40 PM 39.4428 -123.3531 343° North 396 456 30,000  Level Oakland Center
Mon 04:02:40 PM 39.5381 -123.3911 344° North 391 450 30,000  Level Oakland Center
Mon 04:03:40 PM 39.6456 -123.4300 344° North 397 457 30,000 -50 Level Oakland Center
Mon 04:04:40 PM 39.7531 -123.4714 345° North 397 457 29,900  Descending Oakland Center
Mon 04:05:40 PM 39.8650 -123.5106 344° North 397 457 30,000 57 Climbing Oakland Center
Mon 04:06:25 PM 39.9489 -123.5419 344° North 408 470 30,000  Level Seattle Center
Mon 04:07:26 PM 40.0572 -123.5825 344° North 408 470 30,000  Level Seattle Center
Mon 04:08:27 PM 40.1656 -123.6222 344° North 406 467 30,000 -49 Level Seattle Center
Mon 04:09:28 PM 40.2736 -123.6631 343° North 407 468 29,900  Descending Seattle Center
Mon 04:10:30 PM 40.3803 -123.7047 344° North 405 466 30,000 49 Climbing Seattle Center
Mon 04:11:31 PM 40.5081 -123.7533 344° North 403 464 30,000  Level Seattle Center
Mon 04:12:32 PM 40.6158 -123.7942 344° North 406 467 30,000 -49 Level Seattle Center
Mon 04:13:33 PM 40.7231 -123.8350 344° North 406 467 29,900  Descending Seattle Center
Mon 04:14:34 PM 40.8308 -123.8756 343° North 406 467 30,000 49 Climbing Seattle Center
Mon 04:15:35 PM 40.9392 -123.9183 344° North 407 468 30,000  Level Seattle Center
Mon 04:16:36 PM 41.0467 -123.9603 343° North 407 468 30,000  Level Seattle Center
Mon 04:17:38 PM 41.1539 -124.0028 345° North 405 466 30,000 -49 Level Seattle Center
Mon 04:18:39 PM 41.2639 -124.0408 344° North 405 466 29,900  Descending Seattle Center
Mon 04:19:40 PM 41.3944 -124.0906 345° North 406 467 30,000 49 Climbing Seattle Center
Mon 04:20:41 PM 41.5036 -124.1308 343° North 407 468 30,000  Level Seattle Center
Mon 04:21:42 PM 41.6125 -124.1742 344° North 408 470 30,000  Level Seattle Center
Mon 04:22:43 PM 41.7222 -124.2169 351° North 409 471 30,000  Level Seattle Center
Mon 04:23:44 PM 41.8369 -124.2406 North 422 486 30,000  Level Seattle Center
Mon 04:24:45 PM 41.9581 -124.2372 North 432 497 30,000 -49 Level Seattle Center
Mon 04:25:46 PM 42.0808 -124.2347 360° North 436 502 29,900  Descending Seattle Center
Mon 04:26:48 PM 42.2017 -124.2333 North 436 502 30,000  Climbing Seattle Center
Mon 04:27:49 PM 42.3231 -124.2306 360° North 436 502 29,900  Descending Seattle Center
Mon 04:28:50 PM 42.4447 -124.2292 360° North 437 503 30,000 49 Climbing Seattle Center
Mon 04:29:51 PM 42.5900 -124.2281 360° North 436 502 30,000  Level Seattle Center
Mon 04:30:52 PM 42.7114 -124.2269 North 436 502 30,000  Level Seattle Center
Mon 04:31:53 PM 42.8333 -124.2253 North 437 503 30,000 -49 Level Seattle Center
Mon 04:32:54 PM 42.9561 -124.2225 North 439 505 29,900  Descending Seattle Center
Mon 04:33:55 PM 43.0783 -124.2192 North 440 506 30,000 49 Climbing Seattle Center
Mon 04:34:57 PM 43.2011 -124.2169 North 441 507 30,000  Level Seattle Center
Mon 04:35:58 PM 43.3267 -124.2153 360° North 447 514 30,000  Level Seattle Center
Mon 04:36:59 PM 43.4500 -124.2139 North 445 512 30,000  Level Seattle Center
Mon 04:38:00 PM 43.5728 -124.2119 North 442 509 30,000  Level Seattle Center
Mon 04:39:01 PM 43.6961 -124.2097 North 443 510 30,000  Level Seattle Center
Mon 04:40:02 PM 43.8194 -124.2072 North 444 511 30,000  Level Seattle Center
Mon 04:41:03 PM 43.9417 -124.2050 360° North 441 507 30,000  Level Seattle Center
Mon 04:42:04 PM 44.0656 -124.2036 North 443 510 30,000  Level Seattle Center
Mon 04:43:05 PM 44.2139 -124.1997 360° North 444 511 30,000  Level Seattle Center
Mon 04:44:06 PM 44.3375 -124.1983 North 444 511 30,000  Level Seattle Center
Mon 04:45:07 PM 44.4622 -124.1956 North 446 513 30,000  Level Seattle Center
Mon 04:46:09 PM 44.5869 -124.1936 North 447 514 30,000  Level Seattle Center
Mon 04:47:10 PM 44.7125 -124.1911 North 448 516 30,000  Level Seattle Center
Mon 04:48:11 PM 44.8378 -124.1883 North 448 516 30,000  Level Seattle Center
Mon 04:49:12 PM 44.9650 -124.1864 North 451 519 30,000  Level Seattle Center
Mon 04:50:13 PM 45.0917 -124.1833 North 452 520 30,000  Level Seattle Center
Mon 04:51:14 PM 45.2194 -124.1811 North 455 524 30,000  Level Seattle Center
Mon 04:52:15 PM 45.3469 -124.1789 360° North 456 525 30,000  Level Seattle Center
Mon 04:53:16 PM 45.4733 -124.1783 North 455 524 30,000  Level Seattle Center
Mon 04:54:18 PM 45.6008 -124.1753 North 456 525 30,000  Level Seattle Center
Mon 04:55:19 PM 45.7292 -124.1728 North 460 529 30,000  Level Seattle Center
Mon 04:56:20 PM 45.8575 -124.1708 North 461 531 30,000  Level Seattle Center
Mon 04:57:21 PM 45.9861 -124.1678 North 462 532 30,000  Level Seattle Center
Mon 04:58:22 PM 46.1403 -124.1642 360° North 462 532 30,000  Level Seattle Center
Mon 04:59:23 PM 46.2694 -124.1639 North 464 534 30,000  Level Seattle Center
Mon 05:00:24 PM 46.3981 -124.1614 North 464 534 30,000  Level Seattle Center
Mon 05:01:25 PM 46.5253 -124.1597 North 465 535 30,000  Level Seattle Center
Mon 05:02:26 PM 46.6544 -124.1564 North 466 536 30,000  Level Seattle Center
Mon 05:03:27 PM 46.7839 -124.1536 North 466 536 30,000  Level Seattle Center
Mon 05:04:28 PM 46.9125 -124.1514 356° North 465 535 30,000  Level Seattle Center
Mon 05:05:29 PM 47.0392 -124.1636 354° North 456 525 30,000 -49 Level Seattle Center
Mon 05:06:31 PM 47.1653 -124.1844 354° North 454 522 29,900 -49 Descending Seattle Center
Mon 05:07:32 PM 47.2906 -124.2042 354° North 454 522 29,900  Level Seattle Center
Mon 05:08:33 PM 47.4419 -124.2269 346° North 456 525 29,900 49 Level Seattle Center
Mon 05:09:34 PM 47.5606 -124.2719 342° North 440 506 30,000 49 Climbing Seattle Center
Mon 05:10:35 PM 47.6758 -124.3278 342° North 439 505 30,000 -49 Level Seattle Center
Mon 05:11:36 PM 47.7919 -124.3836 343° North 439 505 29,900  Descending Seattle Center
Mon 05:12:37 PM 47.9083 -124.4378 342° North 439 505 30,000  Climbing Seattle Center
Mon 05:13:38 PM 48.0239 -124.4944 North 438 504 29,900 -49 Descending Seattle Center
Mon 05:14:40 PM 48.1497 -124.4833 51° Northeast 473 544 29,900  Level Seattle Center
Mon 05:15:41 PM 48.2353 -124.3242 96° East 524 603 29,900 49 Level Seattle Center
Mon 05:16:42 PM 48.2214 -124.1133 103° East 520 598 30,000 49 Climbing Seattle Center
Mon 05:17:43 PM 48.1817 -123.8633 103° East 517 595 30,000 -49 Level Seattle Center
Mon 05:18:44 PM 48.1486 -123.6547 104° East 517 595 29,900  Descending Seattle Center
Mon 05:19:45 PM 48.1153 -123.4481 103° East 513 590 30,000 49 Climbing Seattle Center
Mon 05:20:46 PM 48.0797 -123.2261 104° East 514 592 30,000  Level Seattle Center
Mon 05:21:47 PM 48.0464 -123.0211 104° East 513 590 30,000  Level Seattle Center
Mon 05:22:48 PM 48.0117 -122.8178 104° East 510 587 30,000  Level Seattle Center
Mon 05:23:50 PM 47.9769 -122.6117 104° East 513 590 30,000  Level Seattle Center
Mon 05:24:51 PM 47.9417 -122.4033 100° East 515 593 30,000  Level Seattle Center
Mon 05:25:52 PM 47.9158 -122.1914 95° East 515 593 30,000  Level Seattle Center
Mon 05:26:53 PM 47.9019 -121.9725 95° East 529 609 30,000  Level Seattle Center
Mon 05:27:54 PM 47.8894 -121.7547 95° East 530 610 30,000  Level Seattle Center
Mon 05:28:55 PM 47.8767 -121.5392 96° East 527 606 30,000  Level Seattle Center
Mon 05:29:56 PM 47.8622 -121.3225 95° East 529 609 30,000  Level Seattle Center
Mon 05:30:57 PM 47.8486 -121.1081 96° East 527 606 30,000  Level Seattle Center
Mon 05:31:58 PM 47.8317 -120.8514 96° East 526 605 30,000  Level Seattle Center
Mon 05:32:59 PM 47.8186 -120.6703 96° East 526 605 30,000  Level Seattle Center
Mon 05:34:00 PM 47.8000 -120.4133 96° East 523 602 30,000  Level Seattle Center
Mon 05:35:01 PM 47.7847 -120.2000 96° East 520 598 30,000  Level Seattle Center
Mon 05:36:02 PM 47.7692 -119.9886 97° East 519 597 30,000 -49 Level Seattle Center
Mon 05:37:03 PM 47.7525 -119.7756 97° East 520 598 29,900 -49 Descending Seattle Center
Mon 05:38:05 PM 47.7350 -119.5628 97° East 519 597 29,900  Level Seattle Center
Mon 05:39:06 PM 47.7175 -119.3508 97° East 521 600 29,900 49 Level Seattle Center
Mon 05:40:07 PM 47.7000 -119.1389 97° East 520 598 30,000  Climbing Seattle Center
Mon 05:41:08 PM 47.6814 -118.9275 97° East 520 598 29,900 -49 Descending Seattle Center
Mon 05:42:09 PM 47.6636 -118.7161 97° East 518 596 29,900 49 Level Seattle Center
Mon 05:43:10 PM 47.6450 -118.5042 98° East 520 598 30,000 49 Climbing Seattle Center
Mon 05:44:11 PM 47.6219 -118.2489 98° East 522 601 30,000 -49 Level Seattle Center
Mon 05:45:12 PM 47.6025 -118.0367 98° East 522 601 29,900 -49 Descending Seattle Center
Mon 05:46:13 PM 47.5828 -117.8253 94° East 520 598 29,900  Level Seattle Center
Mon 05:47:15 PM 47.5719 -117.6133 75° East 526 605 29,900  Level Seattle Center
Mon 05:48:16 PM 47.6094 -117.4069 73° East 521 600 29,900 49 Level Seattle Center
Mon 05:49:17 PM 47.6511 -117.1972 73° East 521 600 30,000 49 Climbing Seattle Center
Mon 05:50:18 PM 47.6947 -116.9839 74° East 521 600 30,000  Level Seattle Center
Mon 05:51:19 PM 47.7356 -116.7750 74° East 521 600 30,000 -49 Level Seattle Center
Mon 05:52:20 PM 47.7753 -116.5681 74° East 521 600 29,900 -49 Descending Seattle Center
Mon 05:53:21 PM 47.8147 -116.3611 74° East 521 600 29,900  Level Seattle Center
Mon 05:54:22 PM 47.8542 -116.1539 74° East 522 601 29,900 49 Level Seattle Center
Mon 05:55:23 PM 47.8933 -115.9464 74° East 522 601 30,000 49 Climbing Seattle Center
Mon 05:56:25 PM 47.9325 -115.7383 74° East 523 602 30,000 -70 Level Seattle Center
Mon 05:56:49 PM 47.9481 -115.6556 74° East 522 601 29,900  Descending Seattle Center
Mon 05:57:50 PM 47.9872 -115.4472 74° East 523 602 30,000  Climbing Seattle Center
Mon 05:58:51 PM 48.0281 -115.2283 75° East 522 601 29,900 -49 Descending Seattle Center
Mon 05:59:52 PM 48.0661 -115.0197 75° East 521 600 29,900 70 Level Seattle Center
Mon 06:00:17 PM 48.0808 -114.9347 75° East 522 601 30,000  Climbing Salt Lake Center
Mon 06:01:19 PM 48.1186 -114.7236 83° East 524 603 29,900 -48 Descending Salt Lake Center
Mon 06:02:21 PM 48.1372 -114.5078 131° Southeast 527 606 29,900 48 Level Salt Lake Center
Mon 06:03:23 PM 48.0464 -114.3492 183° South 507 583 30,000  Climbing Salt Lake Center
Mon 06:04:24 PM 47.9206 -114.3586 227° Southwest 458 527 29,900 -49 Descending Salt Lake Center
Mon 06:05:26 PM 47.8467 -114.4753 267° West 416 479 29,900 48 Level Salt Lake Center
Mon 06:06:28 PM 47.8411 -114.6281 296° West 380 437 30,000 64 Climbing Salt Lake Center
Mon 06:07:00 PM 47.8692 -114.7128 302° West 375 432 30,000  Level Seattle Center
Mon 06:07:30 PM 47.8914 -114.7664 300° West 370 426 30,000 -66 Level Salt Lake Center
Mon 06:08:31 PM 47.9547 -114.9319 300° West 380 437 29,900  Descending Salt Lake Center
Mon 06:09:33 PM 48.0083 -115.0689 296° West 381 438 30,000 65 Climbing Salt Lake Center
Mon 06:10:03 PM 48.0267 -115.1258 266° West 381 438 30,000 -66 Level Seattle Center
Mon 06:11:04 PM 48.0194 -115.2800 254° West 372 428 29,900  Descending Seattle Center
Mon 06:12:05 PM 47.9864 -115.4514 255° West 375 432 30,000  Climbing Seattle Center
Mon 06:13:06 PM 47.9586 -115.6014 254° West 376 433 29,900  Descending Seattle Center
Mon 06:14:07 PM 47.9308 -115.7503 254° West 375 432 30,000 49 Climbing Seattle Center
Mon 06:15:08 PM 47.9028 -115.8989 254° West 374 430 30,000  Level Seattle Center
Mon 06:16:09 PM 47.8750 -116.0464 254° West 373 429 30,000  Level Seattle Center
Mon 06:17:10 PM 47.8467 -116.1956 254° West 374 430 30,000  Level Seattle Center
Mon 06:18:11 PM 47.8186 -116.3442 254° West 374 430 30,000 -49 Level Seattle Center
Mon 06:19:13 PM 47.7897 -116.4919 254° West 374 430 29,900 -49 Descending Seattle Center
Mon 06:20:14 PM 47.7614 -116.6403 254° West 374 430 29,900 49 Level Seattle Center
Mon 06:21:15 PM 47.7322 -116.7889 254° West 376 433 30,000  Climbing Seattle Center
Mon 06:22:16 PM 47.6978 -116.9658 254° West 376 433 29,900 -49 Descending Seattle Center
Mon 06:23:17 PM 47.6689 -117.1106 254° West 376 433 29,900 49 Level Seattle Center
Mon 06:24:18 PM 47.6408 -117.2547 253° West 376 433 30,000  Climbing Seattle Center
Mon 06:25:19 PM 47.6111 -117.4014 253° West 377 434 29,900 -49 Descending Seattle Center
Mon 06:26:20 PM 47.5808 -117.5492 265° West 377 434 29,900 49 Level Seattle Center
Mon 06:27:21 PM 47.5717 -117.7006 280° West 375 432 30,000 49 Climbing Seattle Center
Mon 06:28:23 PM 47.5889 -117.8528 283° West 375 432 30,000 -49 Level Seattle Center
Mon 06:29:24 PM 47.6164 -118.0367 282° West 379 436 29,900 -49 Descending Seattle Center
Mon 06:30:25 PM 47.6383 -118.1861 282° West 376 433 29,900 49 Level Seattle Center
Mon 06:31:26 PM 47.6594 -118.3386 282° West 377 434 30,000 49 Climbing Seattle Center
Mon 06:32:27 PM 47.6819 -118.4931 282° West 382 440 30,000  Level Seattle Center
Mon 06:33:29 PM 47.7022 -118.6333 280° West 348 400 30,000  Level Seattle Center
Mon 06:34:30 PM 47.7172 -118.7558 282° West 306 352 30,000 -49 Level Seattle Center
Mon 06:35:31 PM 47.7353 -118.8783 282° West 304 350 29,900 -49 Descending Seattle Center
Mon 06:36:32 PM 47.7522 -119.0006 281° West 304 350 29,900 49 Level Seattle Center
Mon 06:37:34 PM 47.7686 -119.1228 282° West 303 349 30,000  Climbing Seattle Center
Mon 06:38:35 PM 47.7853 -119.2433 281° West 300 345 29,900  Descending Seattle Center
Mon 06:39:36 PM 47.8050 -119.3919 281° West 305 351 30,000  Climbing Seattle Center
Mon 06:40:37 PM 47.8208 -119.5142 281° West 303 349 29,900 -49 Descending Seattle Center
Mon 06:41:38 PM 47.8367 -119.6336 281° West 298 343 29,900  Level Seattle Center
Mon 06:42:40 PM 47.8525 -119.7531 280° West 295 339 29,900 49 Level Seattle Center
Mon 06:43:41 PM 47.8672 -119.8725 281° West 294 338 30,000 49 Climbing Seattle Center
Mon 06:44:42 PM 47.8831 -119.9936 280° West 298 343 30,000 -49 Level Seattle Center
Mon 06:45:43 PM 47.8981 -120.1161 280° West 300 345 29,900 -49 Descending Seattle Center
Mon 06:46:45 PM 47.9128 -120.2406 281° West 305 351 29,900  Level Seattle Center
Mon 06:47:46 PM 47.9286 -120.3639 281° West 305 351 29,900  Level Seattle Center
Mon 06:48:47 PM 47.9444 -120.4878 282° West 305 351 29,900 -295 Level Seattle Center
Mon 06:49:48 PM 47.9644 -120.6319 279° West 298 343 29,300 -2,016 Descending Seattle Center
Mon 06:50:49 PM 47.9783 -120.7633 281° West 324 373 25,800 -3,463 Descending Seattle Center
Mon 06:51:51 PM 47.9944 -120.8894 279° West 359 413 22,200 -4,390 Descending Seattle Center
Mon 06:52:52 PM 48.0150 -121.0753 281° West 381 438 16,800 -4,180 Descending Seattle Center
Mon 06:53:53 PM 48.0344 -121.2311 280° West 386 444 13,700 -2,607 Descending Seattle Center
Mon 06:54:54 PM 48.0519 -121.3778 280° West 370 426 11,500 -1,707 Descending Seattle Center
Mon 06:55:56 PM 48.0667 -121.5083 278° West 331 381 10,200 -732 Descending Seattle Center
Mon 06:56:57 PM 48.0778 -121.6228 280° West 288 331 10,000 -98 Descending Seattle Center
Mon 06:57:58 PM 48.0914 -121.7372 280° West 284 327 10,000 -79 Level Seattle Center
Mon 06:58:13 PM 48.0964 -121.7781 279° West 247 284 9,900 -1,377 Descending Seattle Center
Mon 06:58:59 PM 48.1039 -121.8511 278° West 239 275 8,600 -1,102 Descending Seattle Center
Mon 06:59:51 PM 48.1119 -121.9356 291° West 242 278 8,100 -590 Descending Seattle Center
Mon 07:00:00 PM 48.1147 -121.9467 280° West 237 273 8,000 -1,279 Descending Seattle Center
Mon 07:00:52 PM 48.1236 -122.0253 276° West 224 258 6,800 -1,452 Descending Seattle Center
Mon 07:01:02 PM 48.1244 -122.0378 277° West 230 265 6,500 -1,800 Descending Seattle Center
Mon 07:01:52 PM 48.1314 -122.1172 276° West 221 254 5,000 -1,672 Descending Seattle Center
Mon 07:02:03 PM 48.1322 -122.1283 271° West 225 259 4,800 -1,279 Descending Seattle Center
Mon 07:02:53 PM 48.1328 -122.2028 326° Northwest 186 214 3,700 -1,082 Descending Seattle Center
Mon 07:03:04 PM 48.1339 -122.2039 254° West 190 219 3,700 -689 Level Seattle Center
Mon 07:03:54 PM 48.1231 -122.2614 180° South 163 188 3,000 -590 Descending Seattle Center
Mon 07:04:05 PM 48.1222 -122.2614 207° Southwest 161 185 3,100 98 Climbing Seattle Center
Mon 07:04:55 PM 48.0856 -122.2892 277° West 152 175 3,100  Level Seattle Center
Mon 07:05:06 PM 48.0858 -122.2925 177° South 152 175 3,100 -98 Level Seattle Center
Mon 07:05:56 PM 48.0481 -122.2900 176° South 135 155 3,000 -290 Descending Seattle Center
Mon 07:06:08 PM 48.0403 -122.2892 180° South 134 154 2,800 -658 Descending Seattle Center
Mon 07:07:09 PM 48.0053 -122.2889 178° South 128 147 2,200 -635 Descending Seattle Center
Mon 07:07:52 PM 47.9761 -122.2872 181° South 133 153 1,700 -689 Descending Seattle Center
Mon 07:08:10 PM 47.9686 -122.2875 180° South 131 151 1,500 -655 Descending Seattle Center
Mon 07:08:47 PM 47.9453 -122.2878 176° South 136 157 1,100 -590 Descending Seattle Center
Mon 07:09:11 PM 47.9333 -122.2867 177° South 129 148 900 -282 Descending Seattle Center
Mon 07:10:12 PM 47.8986 -122.2842 177° South 128 147 700 -197 Descending Seattle Center

Login

Don't have an account? Register now (free) for customized features, flight alerts, and more!